Terminal Aerodrome Forecast
Issued by NWS Twin Cities, MN

Home | Current Version | Previous Version | Graphics & Text | Print | Product List | Glossary On
Versions: 1 2 3 4 5 6 7 8 9 10 11 12 13 14 15 16 17 18 19 20 21
000
FTUS43 KMPX 110429 AAB
TAFSTC
TAF AMD
KSTC 110429Z 1104/1124 VRB03KT P6SM BKN080
     FM110530 17005KT 1SM -SN SCT025 OVC040
     FM110800 18006KT P6SM OVC035
     FM111100 25005KT P6SM OVC060
     FM111500 32010G19KT P6SM VCSH OVC020
     FM111800 33017G26KT P6SM BKN025
     FM112200 33018G27KT P6SM BKN035=

USA.gov is the U.S. government's official web portal to all federal, state and local government web resources and services.